sensor_id;sensor_type;location;lat;lon;timestamp;P1;durP1;ratioP1;P2;durP2;ratioP2
74044;SDS011;62389;51.412;5.436;2023-03-12T00:02:18;9.85;;;4.55;;
74044;SDS011;62389;51.412;5.436;2023-03-12T00:04:45;7.60;;;4.10;;
74044;SDS011;62389;51.412;5.436;2023-03-12T00:07:10;12.05;;;4.70;;
74044;SDS011;62389;51.412;5.436;2023-03-12T00:09:39;6.18;;;4.10;;
74044;SDS011;62389;51.412;5.436;2023-03-12T00:12:04;6.95;;;3.95;;
74044;SDS011;62389;51.412;5.436;2023-03-12T00:14:30;6.88;;;4.20;;
74044;SDS011;62389;51.412;5.436;2023-03-12T00:16:56;5.22;;;3.65;;
74044;SDS011;62389;51.412;5.436;2023-03-12T00:19:21;5.93;;;4.03;;
74044;SDS011;62389;51.412;5.436;2023-03-12T00:21:47;8.30;;;3.85;;
74044;SDS011;62389;51.412;5.436;2023-03-12T00:24:12;8.02;;;4.20;;
74044;SDS011;62389;51.412;5.436;2023-03-12T00:26:38;7.35;;;3.85;;
74044;SDS011;62389;51.412;5.436;2023-03-12T00:29:04;7.93;;;4.60;;
74044;SDS011;62389;51.412;5.436;2023-03-12T00:31:30;8.68;;;3.50;;
74044;SDS011;62389;51.412;5.436;2023-03-12T00:33:57;8.30;;;4.38;;
74044;SDS011;62389;51.412;5.436;2023-03-12T00:36:23;6.85;;;3.97;;
74044;SDS011;62389;51.412;5.436;2023-03-12T00:38:51;8.77;;;4.65;;
74044;SDS011;62389;51.412;5.436;2023-03-12T00:41:17;6.93;;;4.22;;
74044;SDS011;62389;51.412;5.436;2023-03-12T00:43:46;6.22;;;3.88;;
74044;SDS011;62389;51.412;5.436;2023-03-12T00:46:11;8.35;;;4.35;;
74044;SDS011;62389;51.412;5.436;2023-03-12T00:48:37;9.52;;;4.40;;
74044;SDS011;62389;51.412;5.436;2023-03-12T00:51:02;6.57;;;3.88;;
74044;SDS011;62389;51.412;5.436;2023-03-12T00:53:28;6.90;;;4.50;;
74044;SDS011;62389;51.412;5.436;2023-03-12T00:55:53;6.95;;;3.95;;
74044;SDS011;62389;51.412;5.436;2023-03-12T00:58:19;8.02;;;4.78;;
74044;SDS011;62389;51.412;5.436;2023-03-12T01:00:44;7.93;;;4.30;;
74044;SDS011;62389;51.412;5.436;2023-03-12T01:03:10;9.93;;;4.32;;
74044;SDS011;62389;51.412;5.436;2023-03-12T01:05:35;8.45;;;4.20;;
74044;SDS011;62389;51.412;5.436;2023-03-12T01:08:02;8.98;;;4.50;;
74044;SDS011;62389;51.412;5.436;2023-03-12T01:10:29;7.97;;;4.20;;
74044;SDS011;62389;51.412;5.436;2023-03-12T01:12:54;8.07;;;4.53;;
74044;SDS011;62389;51.412;5.436;2023-03-12T01:15:20;8.27;;;4.55;;
74044;SDS011;62389;51.412;5.436;2023-03-12T01:17:46;9.77;;;4.75;;
74044;SDS011;62389;51.412;5.436;2023-03-12T01:20:11;6.95;;;4.65;;
74044;SDS011;62389;51.412;5.436;2023-03-12T01:22:37;8.73;;;4.72;;
74044;SDS011;62389;51.412;5.436;2023-03-12T01:25:02;7.10;;;4.50;;
74044;SDS011;62389;51.412;5.436;2023-03-12T01:27:28;9.57;;;4.57;;
74044;SDS011;62389;51.412;5.436;2023-03-12T01:29:53;6.22;;;4.38;;
74044;SDS011;62389;51.412;5.436;2023-03-12T01:32:19;9.65;;;4.90;;
74044;SDS011;62389;51.412;5.436;2023-03-12T01:34:45;8.68;;;4.72;;
74044;SDS011;62389;51.412;5.436;2023-03-12T01:37:10;6.15;;;4.25;;
74044;SDS011;62389;51.412;5.436;2023-03-12T01:39:36;10.20;;;4.63;;
74044;SDS011;62389;51.412;5.436;2023-03-12T01:42:01;10.07;;;5.32;;
74044;SDS011;62389;51.412;5.436;2023-03-12T01:44:27;10.95;;;4.85;;
74044;SDS011;62389;51.412;5.436;2023-03-12T01:46:53;9.20;;;4.95;;
74044;SDS011;62389;51.412;5.436;2023-03-12T01:49:21;7.10;;;4.50;;
74044;SDS011;62389;51.412;5.436;2023-03-12T01:51:48;6.32;;;4.25;;
74044;SDS011;62389;51.412;5.436;2023-03-12T01:54:17;8.68;;;4.43;;
74044;SDS011;62389;51.412;5.436;2023-03-12T01:56:46;12.15;;;4.47;;
74044;SDS011;62389;51.412;5.436;2023-03-12T01:59:14;9.05;;;4.35;;
74044;SDS011;62389;51.412;5.436;2023-03-12T02:01:44;7.18;;;4.20;;
74044;SDS011;62389;51.412;5.436;2023-03-12T02:04:10;11.43;;;4.38;;
74044;SDS011;62389;51.412;5.436;2023-03-12T02:07:00;9.10;;;4.72;;
74044;SDS011;62389;51.412;5.436;2023-03-12T02:09:34;8.82;;;4.53;;
74044;SDS011;62389;51.412;5.436;2023-03-12T02:12:02;10.00;;;4.25;;
74044;SDS011;62389;51.412;5.436;2023-03-12T02:14:27;9.68;;;4.78;;
74044;SDS011;62389;51.412;5.436;2023-03-12T02:16:53;8.68;;;4.95;;
74044;SDS011;62389;51.412;5.436;2023-03-12T02:22:06;6.70;;;4.43;;
74044;SDS011;62389;51.412;5.436;2023-03-12T02:27:17;7.10;;;4.57;;
74044;SDS011;62389;51.412;5.436;2023-03-12T02:29:43;9.77;;;5.72;;
74044;SDS011;62389;51.412;5.436;2023-03-12T02:32:14;8.73;;;4.93;;
74044;SDS011;62389;51.412;5.436;2023-03-12T02:34:45;7.38;;;4.80;;
74044;SDS011;62389;51.412;5.436;2023-03-12T02:37:12;8.35;;;4.65;;
74044;SDS011;62389;51.412;5.436;2023-03-12T02:39:38;8.77;;;5.55;;
74044;SDS011;62389;51.412;5.436;2023-03-12T02:44:31;9.38;;;4.30;;
74044;SDS011;62389;51.412;5.436;2023-03-12T02:47:02;9.48;;;5.25;;
74044;SDS011;62389;51.412;5.436;2023-03-12T02:49:29;7.38;;;4.50;;
74044;SDS011;62389;51.412;5.436;2023-03-12T02:51:57;10.60;;;5.05;;
74044;SDS011;62389;51.412;5.436;2023-03-12T02:54:22;7.63;;;5.20;;
74044;SDS011;62389;51.412;5.436;2023-03-12T02:56:49;9.02;;;4.95;;
74044;SDS011;62389;51.412;5.436;2023-03-12T02:59:16;9.02;;;4.53;;
74044;SDS011;62389;51.412;5.436;2023-03-12T03:01:42;7.95;;;6.38;;
74044;SDS011;62389;51.412;5.436;2023-03-12T03:04:08;8.27;;;4.45;;
74044;SDS011;62389;51.412;5.436;2023-03-12T03:06:35;6.57;;;4.13;;
74044;SDS011;62389;51.412;5.436;2023-03-12T03:09:02;9.18;;;4.82;;
74044;SDS011;62389;51.412;5.436;2023-03-12T03:11:28;8.27;;;4.85;;
74044;SDS011;62389;51.412;5.436;2023-03-12T03:13:53;7.85;;;5.30;;
74044;SDS011;62389;51.412;5.436;2023-03-12T03:16:19;7.57;;;4.97;;
74044;SDS011;62389;51.412;5.436;2023-03-12T03:18:45;9.95;;;4.65;;
74044;SDS011;62389;51.412;5.436;2023-03-12T03:21:11;13.05;;;5.28;;
74044;SDS011;62389;51.412;5.436;2023-03-12T03:23:41;10.23;;;4.93;;
74044;SDS011;62389;51.412;5.436;2023-03-12T03:26:07;10.02;;;5.20;;
74044;SDS011;62389;51.412;5.436;2023-03-12T03:28:32;11.13;;;5.07;;
74044;SDS011;62389;51.412;5.436;2023-03-12T03:30:58;9.00;;;5.65;;
74044;SDS011;62389;51.412;5.436;2023-03-12T03:35:51;8.05;;;4.68;;
74044;SDS011;62389;51.412;5.436;2023-03-12T03:38:19;7.30;;;4.90;;
74044;SDS011;62389;51.412;5.436;2023-03-12T03:40:45;9.25;;;5.03;;
74044;SDS011;62389;51.412;5.436;2023-03-12T03:43:10;11.13;;;5.65;;
74044;SDS011;62389;51.412;5.436;2023-03-12T03:45:36;8.35;;;4.70;;
74044;SDS011;62389;51.412;5.436;2023-03-12T03:48:01;11.13;;;5.28;;
74044;SDS011;62389;51.412;5.436;2023-03-12T03:50:26;8.35;;;5.20;;
74044;SDS011;62389;51.412;5.436;2023-03-12T03:52:52;10.45;;;4.95;;
74044;SDS011;62389;51.412;5.436;2023-03-12T03:55:17;9.50;;;5.45;;
74044;SDS011;62389;51.412;5.436;2023-03-12T03:57:42;9.63;;;5.10;;
74044;SDS011;62389;51.412;5.436;2023-03-12T04:00:08;8.82;;;4.80;;
74044;SDS011;62389;51.412;5.436;2023-03-12T04:02:37;8.35;;;4.78;;
74044;SDS011;62389;51.412;5.436;2023-03-12T04:05:03;10.02;;;4.80;;
74044;SDS011;62389;51.412;5.436;2023-03-12T04:07:28;8.60;;;4.63;;
74044;SDS011;62389;51.412;5.436;2023-03-12T04:09:54;12.23;;;4.15;;
74044;SDS011;62389;51.412;5.436;2023-03-12T04:12:19;7.75;;;5.32;;
74044;SDS011;62389;51.412;5.436;2023-03-12T04:14:45;7.70;;;4.68;;
74044;SDS011;62389;51.412;5.436;2023-03-12T04:17:10;9.55;;;4.53;;
74044;SDS011;62389;51.412;5.436;2023-03-12T04:19:36;10.57;;;5.15;;
74044;SDS011;62389;51.412;5.436;2023-03-12T04:22:01;8.18;;;4.88;;
74044;SDS011;62389;51.412;5.436;2023-03-12T04:24:27;8.25;;;4.53;;
74044;SDS011;62389;51.412;5.436;2023-03-12T04:26:52;7.65;;;4.97;;
74044;SDS011;62389;51.412;5.436;2023-03-12T04:29:18;8.98;;;4.47;;
74044;SDS011;62389;51.412;5.436;2023-03-12T04:31:44;9.35;;;4.50;;
74044;SDS011;62389;51.412;5.436;2023-03-12T04:34:10;10.57;;;5.10;;
74044;SDS011;62389;51.412;5.436;2023-03-12T04:36:36;6.95;;;4.03;;
74044;SDS011;62389;51.412;5.436;2023-03-12T04:39:02;7.28;;;4.82;;
74044;SDS011;62389;51.412;5.436;2023-03-12T04:41:31;7.93;;;4.57;;
74044;SDS011;62389;51.412;5.436;2023-03-12T04:43:57;11.27;;;4.93;;
74044;SDS011;62389;51.412;5.436;2023-03-12T04:46:22;11.57;;;4.40;;
74044;SDS011;62389;51.412;5.436;2023-03-12T04:48:47;7.93;;;4.40;;
74044;SDS011;62389;51.412;5.436;2023-03-12T04:51:13;6.50;;;3.88;;
74044;SDS011;62389;51.412;5.436;2023-03-12T04:53:38;7.47;;;3.75;;
74044;SDS011;62389;51.412;5.436;2023-03-12T04:56:04;7.75;;;4.07;;
74044;SDS011;62389;51.412;5.436;2023-03-12T04:58:30;7.85;;;4.50;;
74044;SDS011;62389;51.412;5.436;2023-03-12T05:00:56;10.27;;;4.50;;
74044;SDS011;62389;51.412;5.436;2023-03-12T05:03:21;7.82;;;3.78;;
74044;SDS011;62389;51.412;5.436;2023-03-12T05:05:46;6.55;;;3.65;;
74044;SDS011;62389;51.412;5.436;2023-03-12T05:08:12;10.05;;;3.65;;
74044;SDS011;62389;51.412;5.436;2023-03-12T05:10:37;5.70;;;3.47;;
74044;SDS011;62389;51.412;5.436;2023-03-12T05:13:03;7.18;;;3.80;;
74044;SDS011;62389;51.412;5.436;2023-03-12T05:15:36;5.18;;;3.08;;
74044;SDS011;62389;51.412;5.436;2023-03-12T05:18:01;6.57;;;3.70;;
74044;SDS011;62389;51.412;5.436;2023-03-12T05:20:27;11.82;;;4.30;;
74044;SDS011;62389;51.412;5.436;2023-03-12T05:22:52;7.78;;;4.15;;
74044;SDS011;62389;51.412;5.436;2023-03-12T05:25:17;10.57;;;3.55;;
74044;SDS011;62389;51.412;5.436;2023-03-12T05:27:43;8.27;;;3.40;;
74044;SDS011;62389;51.412;5.436;2023-03-12T05:30:08;12.68;;;3.83;;
74044;SDS011;62389;51.412;5.436;2023-03-12T05:32:34;10.18;;;3.72;;
74044;SDS011;62389;51.412;5.436;2023-03-12T05:35:00;8.75;;;3.38;;
74044;SDS011;62389;51.412;5.436;2023-03-12T05:37:25;7.53;;;3.55;;
74044;SDS011;62389;51.412;5.436;2023-03-12T05:39:52;5.40;;;3.58;;
74044;SDS011;62389;51.412;5.436;2023-03-12T05:42:18;11.43;;;3.47;;
74044;SDS011;62389;51.412;5.436;2023-03-12T05:44:43;6.25;;;3.40;;
74044;SDS011;62389;51.412;5.436;2023-03-12T05:47:08;8.48;;;4.20;;
74044;SDS011;62389;51.412;5.436;2023-03-12T05:49:34;11.07;;;4.10;;
74044;SDS011;62389;51.412;5.436;2023-03-12T05:52:00;10.77;;;4.13;;
74044;SDS011;62389;51.412;5.436;2023-03-12T05:54:25;8.18;;;3.20;;
74044;SDS011;62389;51.412;5.436;2023-03-12T05:56:51;7.45;;;3.25;;
74044;SDS011;62389;51.412;5.436;2023-03-12T05:59:17;10.48;;;3.35;;
74044;SDS011;62389;51.412;5.436;2023-03-12T06:01:42;5.20;;;3.20;;
74044;SDS011;62389;51.412;5.436;2023-03-12T06:04:07;6.32;;;3.33;;
74044;SDS011;62389;51.412;5.436;2023-03-12T06:06:33;7.63;;;3.80;;
74044;SDS011;62389;51.412;5.436;2023-03-12T06:09:00;6.18;;;3.75;;
74044;SDS011;62389;51.412;5.436;2023-03-12T06:11:27;10.25;;;3.75;;
74044;SDS011;62389;51.412;5.436;2023-03-12T06:13:52;8.02;;;3.55;;
74044;SDS011;62389;51.412;5.436;2023-03-12T06:16:19;9.32;;;4.30;;
74044;SDS011;62389;51.412;5.436;2023-03-12T06:18:45;6.45;;;3.88;;
74044;SDS011;62389;51.412;5.436;2023-03-12T06:21:19;6.30;;;3.47;;
74044;SDS011;62389;51.412;5.436;2023-03-12T06:23:47;6.78;;;4.05;;
74044;SDS011;62389;51.412;5.436;2023-03-12T06:26:13;7.07;;;4.00;;
74044;SDS011;62389;51.412;5.436;2023-03-12T06:28:39;7.72;;;3.85;;
74044;SDS011;62389;51.412;5.436;2023-03-12T06:31:05;9.55;;;3.80;;
74044;SDS011;62389;51.412;5.436;2023-03-12T06:33:31;7.50;;;3.90;;
74044;SDS011;62389;51.412;5.436;2023-03-12T06:35:58;11.38;;;4.65;;
74044;SDS011;62389;51.412;5.436;2023-03-12T06:38:26;9.77;;;3.95;;
74044;SDS011;62389;51.412;5.436;2023-03-12T06:43:19;9.38;;;4.50;;
74044;SDS011;62389;51.412;5.436;2023-03-12T06:45:45;9.73;;;4.18;;
74044;SDS011;62389;51.412;5.436;2023-03-12T06:48:10;10.75;;;3.83;;
74044;SDS011;62389;51.412;5.436;2023-03-12T06:50:36;8.90;;;4.60;;
74044;SDS011;62389;51.412;5.436;2023-03-12T06:53:01;10.93;;;4.57;;
74044;SDS011;62389;51.412;5.436;2023-03-12T06:55:27;7.40;;;4.32;;
74044;SDS011;62389;51.412;5.436;2023-03-12T06:57:52;9.05;;;4.55;;
74044;SDS011;62389;51.412;5.436;2023-03-12T07:00:17;11.82;;;4.80;;
74044;SDS011;62389;51.412;5.436;2023-03-12T07:02:43;6.55;;;3.92;;
74044;SDS011;62389;51.412;5.436;2023-03-12T07:05:09;8.85;;;4.13;;
74044;SDS011;62389;51.412;5.436;2023-03-12T07:07:34;9.05;;;4.47;;
74044;SDS011;62389;51.412;5.436;2023-03-12T07:09:59;13.50;;;5.35;;
74044;SDS011;62389;51.412;5.436;2023-03-12T07:12:25;11.65;;;4.75;;
74044;SDS011;62389;51.412;5.436;2023-03-12T07:14:50;7.97;;;4.40;;
74044;SDS011;62389;51.412;5.436;2023-03-12T07:17:15;8.35;;;4.47;;
74044;SDS011;62389;51.412;5.436;2023-03-12T07:19:41;11.98;;;4.60;;
74044;SDS011;62389;51.412;5.436;2023-03-12T07:22:06;9.57;;;5.45;;
74044;SDS011;62389;51.412;5.436;2023-03-12T07:24:31;9.70;;;4.45;;
74044;SDS011;62389;51.412;5.436;2023-03-12T07:26:57;10.57;;;4.78;;
74044;SDS011;62389;51.412;5.436;2023-03-12T07:29:22;9.05;;;4.40;;
74044;SDS011;62389;51.412;5.436;2023-03-12T07:31:47;7.28;;;4.50;;
74044;SDS011;62389;51.412;5.436;2023-03-12T07:34:13;12.80;;;4.50;;
74044;SDS011;62389;51.412;5.436;2023-03-12T07:36:38;7.85;;;4.45;;
74044;SDS011;62389;51.412;5.436;2023-03-12T07:39:03;7.20;;;4.35;;
74044;SDS011;62389;51.412;5.436;2023-03-12T07:41:29;11.52;;;4.70;;
74044;SDS011;62389;51.412;5.436;2023-03-12T07:43:54;9.18;;;4.63;;
74044;SDS011;62389;51.412;5.436;2023-03-12T07:46:19;8.38;;;5.00;;
74044;SDS011;62389;51.412;5.436;2023-03-12T07:48:45;10.98;;;4.70;;
74044;SDS011;62389;51.412;5.436;2023-03-12T07:51:10;11.60;;;5.05;;
74044;SDS011;62389;51.412;5.436;2023-03-12T07:53:36;8.30;;;5.15;;
74044;SDS011;62389;51.412;5.436;2023-03-12T07:56:01;9.25;;;5.13;;
74044;SDS011;62389;51.412;5.436;2023-03-12T07:58:26;9.85;;;5.07;;
74044;SDS011;62389;51.412;5.436;2023-03-12T08:00:53;12.00;;;6.03;;
74044;SDS011;62389;51.412;5.436;2023-03-12T08:03:19;14.43;;;6.38;;
74044;SDS011;62389;51.412;5.436;2023-03-12T08:05:45;12.63;;;6.35;;
74044;SDS011;62389;51.412;5.436;2023-03-12T08:08:20;12.00;;;6.68;;
74044;SDS011;62389;51.412;5.436;2023-03-12T08:10:45;11.90;;;5.50;;
74044;SDS011;62389;51.412;5.436;2023-03-12T08:13:11;13.15;;;7.03;;
74044;SDS011;62389;51.412;5.436;2023-03-12T08:15:36;14.35;;;7.60;;
74044;SDS011;62389;51.412;5.436;2023-03-12T08:18:02;9.85;;;5.65;;
74044;SDS011;62389;51.412;5.436;2023-03-12T08:20:27;14.30;;;6.72;;
74044;SDS011;62389;51.412;5.436;2023-03-12T08:22:52;16.30;;;8.15;;
74044;SDS011;62389;51.412;5.436;2023-03-12T08:25:18;12.65;;;6.43;;
74044;SDS011;62389;51.412;5.436;2023-03-12T08:27:45;11.27;;;6.45;;
74044;SDS011;62389;51.412;5.436;2023-03-12T08:30:10;11.93;;;7.38;;
74044;SDS011;62389;51.412;5.436;2023-03-12T08:32:36;17.88;;;8.35;;
74044;SDS011;62389;51.412;5.436;2023-03-12T08:35:01;13.98;;;7.43;;
74044;SDS011;62389;51.412;5.436;2023-03-12T08:37:29;13.45;;;7.53;;
74044;SDS011;62389;51.412;5.436;2023-03-12T08:39:54;16.30;;;9.10;;
74044;SDS011;62389;51.412;5.436;2023-03-12T08:42:20;16.05;;;8.75;;
74044;SDS011;62389;51.412;5.436;2023-03-12T08:44:45;15.25;;;7.90;;
74044;SDS011;62389;51.412;5.436;2023-03-12T08:47:10;12.68;;;7.07;;
74044;SDS011;62389;51.412;5.436;2023-03-12T08:49:36;12.18;;;7.00;;
74044;SDS011;62389;51.412;5.436;2023-03-12T08:52:01;12.52;;;6.93;;
74044;SDS011;62389;51.412;5.436;2023-03-12T08:54:27;10.45;;;5.88;;
74044;SDS011;62389;51.412;5.436;2023-03-12T08:56:52;15.45;;;7.38;;
74044;SDS011;62389;51.412;5.436;2023-03-12T08:59:18;16.42;;;7.53;;
74044;SDS011;62389;51.412;5.436;2023-03-12T09:01:44;18.70;;;9.05;;
74044;SDS011;62389;51.412;5.436;2023-03-12T09:04:10;18.48;;;7.45;;
74044;SDS011;62389;51.412;5.436;2023-03-12T09:06:35;15.80;;;7.90;;
74044;SDS011;62389;51.412;5.436;2023-03-12T09:09:01;16.27;;;7.53;;
74044;SDS011;62389;51.412;5.436;2023-03-12T09:11:29;14.68;;;7.10;;
74044;SDS011;62389;51.412;5.436;2023-03-12T09:13:55;14.05;;;6.88;;
74044;SDS011;62389;51.412;5.436;2023-03-12T09:16:21;18.30;;;8.10;;
74044;SDS011;62389;51.412;5.436;2023-03-12T09:18:46;15.57;;;6.97;;
74044;SDS011;62389;51.412;5.436;2023-03-12T09:21:11;15.27;;;7.95;;
74044;SDS011;62389;51.412;5.436;2023-03-12T09:23:37;18.73;;;9.70;;
74044;SDS011;62389;51.412;5.436;2023-03-12T09:26:02;18.33;;;8.20;;
74044;SDS011;62389;51.412;5.436;2023-03-12T09:28:28;17.33;;;9.50;;
74044;SDS011;62389;51.412;5.436;2023-03-12T09:30:53;19.48;;;9.90;;
74044;SDS011;62389;51.412;5.436;2023-03-12T09:33:18;15.75;;;7.53;;
74044;SDS011;62389;51.412;5.436;2023-03-12T09:35:44;18.85;;;8.80;;
74044;SDS011;62389;51.412;5.436;2023-03-12T09:38:13;21.00;;;9.45;;
74044;SDS011;62389;51.412;5.436;2023-03-12T09:40:42;19.85;;;9.60;;
74044;SDS011;62389;51.412;5.436;2023-03-12T09:43:20;18.02;;;8.65;;
74044;SDS011;62389;51.412;5.436;2023-03-12T09:45:49;25.92;;;12.20;;
74044;SDS011;62389;51.412;5.436;2023-03-12T09:48:21;21.77;;;8.68;;
74044;SDS011;62389;51.412;5.436;2023-03-12T09:50:51;22.17;;;10.45;;
74044;SDS011;62389;51.412;5.436;2023-03-12T09:53:27;19.00;;;8.93;;
74044;SDS011;62389;51.412;5.436;2023-03-12T09:56:00;16.10;;;6.93;;
74044;SDS011;62389;51.412;5.436;2023-03-12T09:58:29;22.27;;;11.95;;
74044;SDS011;62389;51.412;5.436;2023-03-12T10:01:11;26.70;;;13.40;;
74044;SDS011;62389;51.412;5.436;2023-03-12T10:06:23;28.88;;;12.65;;
74044;SDS011;62389;51.412;5.436;2023-03-12T10:11:36;25.10;;;11.48;;
74044;SDS011;62389;51.412;5.436;2023-03-12T10:14:21;25.55;;;11.80;;
74044;SDS011;62389;51.412;5.436;2023-03-12T10:19:52;24.48;;;10.02;;
74044;SDS011;62389;51.412;5.436;2023-03-12T10:30:44;39.38;;;15.52;;
74044;SDS011;62389;51.412;5.436;2023-03-12T10:33:15;33.60;;;12.77;;
74044;SDS011;62389;51.412;5.436;2023-03-12T10:35:43;31.30;;;12.00;;
74044;SDS011;62389;51.412;5.436;2023-03-12T10:38:26;33.55;;;13.20;;
74044;SDS011;62389;51.412;5.436;2023-03-12T10:40:54;36.40;;;15.23;;
74044;SDS011;62389;51.412;5.436;2023-03-12T10:43:20;37.50;;;16.75;;
74044;SDS011;62389;51.412;5.436;2023-03-12T10:48:24;35.90;;;14.02;;
74044;SDS011;62389;51.412;5.436;2023-03-12T10:51:00;37.53;;;13.57;;
74044;SDS011;62389;51.412;5.436;2023-03-12T10:53:27;32.60;;;13.38;;
74044;SDS011;62389;51.412;5.436;2023-03-12T10:58:49;28.15;;;13.20;;
74044;SDS011;62389;51.412;5.436;2023-03-12T11:06:19;35.50;;;13.20;;
74044;SDS011;62389;51.412;5.436;2023-03-12T11:09:01;27.15;;;11.43;;
74044;SDS011;62389;51.412;5.436;2023-03-12T11:11:30;37.40;;;13.70;;
74044;SDS011;62389;51.412;5.436;2023-03-12T11:14:05;35.50;;;13.68;;
74044;SDS011;62389;51.412;5.436;2023-03-12T11:16:32;36.50;;;13.18;;
74044;SDS011;62389;51.412;5.436;2023-03-12T11:19:01;39.47;;;14.98;;
74044;SDS011;62389;51.412;5.436;2023-03-12T11:21:29;41.70;;;13.98;;
74044;SDS011;62389;51.412;5.436;2023-03-12T11:24:03;41.47;;;14.82;;
74044;SDS011;62389;51.412;5.436;2023-03-12T11:26:41;35.20;;;14.05;;
74044;SDS011;62389;51.412;5.436;2023-03-12T11:29:37;35.45;;;13.95;;
74044;SDS011;62389;51.412;5.436;2023-03-12T11:35:00;39.00;;;14.23;;
74044;SDS011;62389;51.412;5.436;2023-03-12T11:50:56;36.42;;;12.43;;
74044;SDS011;62389;51.412;5.436;2023-03-12T11:56:44;33.83;;;11.50;;
74044;SDS011;62389;51.412;5.436;2023-03-12T12:02:22;29.15;;;11.98;;
74044;SDS011;62389;51.412;5.436;2023-03-12T12:07:58;34.10;;;11.02;;
74044;SDS011;62389;51.412;5.436;2023-03-12T12:10:36;32.97;;;10.48;;
74044;SDS011;62389;51.412;5.436;2023-03-12T12:13:17;27.13;;;9.23;;
74044;SDS011;62389;51.412;5.436;2023-03-12T12:16:07;31.75;;;10.38;;
74044;SDS011;62389;51.412;5.436;2023-03-12T12:18:59;18.92;;;7.65;;
74044;SDS011;62389;51.412;5.436;2023-03-12T12:24:18;29.27;;;9.98;;
74044;SDS011;62389;51.412;5.436;2023-03-12T12:32:17;23.80;;;9.68;;
74044;SDS011;62389;51.412;5.436;2023-03-12T12:45:21;21.60;;;8.48;;
74044;SDS011;62389;51.412;5.436;2023-03-12T12:47:52;31.17;;;9.38;;
74044;SDS011;62389;51.412;5.436;2023-03-12T12:50:23;26.50;;;9.65;;
74044;SDS011;62389;51.412;5.436;2023-03-12T12:52:56;27.77;;;9.80;;
74044;SDS011;62389;51.412;5.436;2023-03-12T12:55:31;31.45;;;9.65;;
74044;SDS011;62389;51.412;5.436;2023-03-12T12:58:20;26.20;;;7.63;;
74044;SDS011;62389;51.412;5.436;2023-03-12T13:00:55;26.75;;;8.40;;
74044;SDS011;62389;51.412;5.436;2023-03-12T13:03:24;18.30;;;6.03;;
74044;SDS011;62389;51.412;5.436;2023-03-12T13:13:37;18.40;;;4.82;;
74044;SDS011;62389;51.412;5.436;2023-03-12T13:19:20;18.90;;;4.18;;
74044;SDS011;62389;51.412;5.436;2023-03-12T13:21:58;19.95;;;4.90;;
74044;SDS011;62389;51.412;5.436;2023-03-12T13:24:52;11.45;;;3.70;;
74044;SDS011;62389;51.412;5.436;2023-03-12T13:27:38;19.38;;;4.70;;
74044;SDS011;62389;51.412;5.436;2023-03-12T13:33:10;20.65;;;4.57;;
74044;SDS011;62389;51.412;5.436;2023-03-12T13:35:38;15.52;;;3.88;;
74044;SDS011;62389;51.412;5.436;2023-03-12T13:41:04;17.45;;;4.78;;
74044;SDS011;62389;51.412;5.436;2023-03-12T13:46:00;16.10;;;3.97;;
74044;SDS011;62389;51.412;5.436;2023-03-12T13:48:30;17.35;;;3.78;;
74044;SDS011;62389;51.412;5.436;2023-03-12T13:50:59;18.42;;;3.70;;
74044;SDS011;62389;51.412;5.436;2023-03-12T13:53:34;19.75;;;4.72;;
74044;SDS011;62389;51.412;5.436;2023-03-12T13:56:06;18.25;;;3.58;;
74044;SDS011;62389;51.412;5.436;2023-03-12T13:58:57;20.95;;;4.35;;
74044;SDS011;62389;51.412;5.436;2023-03-12T14:01:45;22.58;;;4.63;;
74044;SDS011;62389;51.412;5.436;2023-03-12T14:04:22;22.48;;;3.78;;
74044;SDS011;62389;51.412;5.436;2023-03-12T14:15:24;16.65;;;3.28;;
74044;SDS011;62389;51.412;5.436;2023-03-12T14:18:14;18.05;;;3.63;;
74044;SDS011;62389;51.412;5.436;2023-03-12T14:20:49;19.58;;;4.85;;
74044;SDS011;62389;51.412;5.436;2023-03-12T14:23:18;18.48;;;4.43;;
74044;SDS011;62389;51.412;5.436;2023-03-12T14:25:45;21.40;;;4.55;;
74044;SDS011;62389;51.412;5.436;2023-03-12T14:30:43;16.73;;;3.35;;
74044;SDS011;62389;51.412;5.436;2023-03-12T14:33:14;18.58;;;3.75;;
74044;SDS011;62389;51.412;5.436;2023-03-12T14:35:42;19.05;;;3.75;;
74044;SDS011;62389;51.412;5.436;2023-03-12T14:38:13;19.55;;;3.50;;
74044;SDS011;62389;51.412;5.436;2023-03-12T14:40:54;16.83;;;3.88;;
74044;SDS011;62389;51.412;5.436;2023-03-12T14:43:29;24.08;;;4.00;;
74044;SDS011;62389;51.412;5.436;2023-03-12T14:46:43;12.77;;;4.25;;
74044;SDS011;62389;51.412;5.436;2023-03-12T14:48:47;15.90;;;3.35;;
74044;SDS011;62389;51.412;5.436;2023-03-12T14:51:21;14.43;;;3.70;;
74044;SDS011;62389;51.412;5.436;2023-03-12T14:53:51;20.20;;;3.92;;
74044;SDS011;62389;51.412;5.436;2023-03-12T14:56:30;19.35;;;3.58;;
74044;SDS011;62389;51.412;5.436;2023-03-12T14:58:59;13.40;;;3.40;;
74044;SDS011;62389;51.412;5.436;2023-03-12T15:01:44;14.60;;;3.53;;
74044;SDS011;62389;51.412;5.436;2023-03-12T15:04:15;17.83;;;2.97;;
74044;SDS011;62389;51.412;5.436;2023-03-12T15:06:43;14.98;;;2.90;;
74044;SDS011;62389;51.412;5.436;2023-03-12T15:09:15;17.23;;;4.90;;
74044;SDS011;62389;51.412;5.436;2023-03-12T15:11:43;14.43;;;3.92;;
74044;SDS011;62389;51.412;5.436;2023-03-12T15:14:12;17.77;;;3.38;;
74044;SDS011;62389;51.412;5.436;2023-03-12T15:16:40;18.83;;;4.22;;
74044;SDS011;62389;51.412;5.436;2023-03-12T15:19:10;19.70;;;3.08;;
74044;SDS011;62389;51.412;5.436;2023-03-12T15:21:37;16.05;;;3.55;;
74044;SDS011;62389;51.412;5.436;2023-03-12T15:24:03;21.27;;;3.90;;
74044;SDS011;62389;51.412;5.436;2023-03-12T15:26:31;11.18;;;3.30;;
74044;SDS011;62389;51.412;5.436;2023-03-12T15:31:50;13.38;;;2.88;;
74044;SDS011;62389;51.412;5.436;2023-03-12T15:34:30;11.75;;;2.92;;
74044;SDS011;62389;51.412;5.436;2023-03-12T15:37:16;18.35;;;3.03;;
74044;SDS011;62389;51.412;5.436;2023-03-12T15:39:46;19.45;;;3.75;;
74044;SDS011;62389;51.412;5.436;2023-03-12T15:42:15;17.25;;;3.20;;
74044;SDS011;62389;51.412;5.436;2023-03-12T15:47:14;20.75;;;3.00;;
74044;SDS011;62389;51.412;5.436;2023-03-12T15:49:42;18.23;;;2.80;;
74044;SDS011;62389;51.412;5.436;2023-03-12T15:54:43;9.45;;;2.45;;
74044;SDS011;62389;51.412;5.436;2023-03-12T15:57:44;15.35;;;3.72;;
74044;SDS011;62389;51.412;5.436;2023-03-12T16:02:37;19.37;;;4.57;;
74044;SDS011;62389;51.412;5.436;2023-03-12T16:05:03;19.05;;;3.42;;
74044;SDS011;62389;51.412;5.436;2023-03-12T16:07:29;16.52;;;3.03;;
74044;SDS011;62389;51.412;5.436;2023-03-12T16:09:54;15.43;;;3.17;;
74044;SDS011;62389;51.412;5.436;2023-03-12T16:12:20;18.27;;;4.03;;
74044;SDS011;62389;51.412;5.436;2023-03-12T16:14:45;16.20;;;3.72;;
74044;SDS011;62389;51.412;5.436;2023-03-12T16:17:13;17.55;;;3.10;;
74044;SDS011;62389;51.412;5.436;2023-03-12T16:19:43;20.45;;;3.65;;
74044;SDS011;62389;51.412;5.436;2023-03-12T16:22:08;19.50;;;3.25;;
74044;SDS011;62389;51.412;5.436;2023-03-12T16:24:34;18.15;;;2.95;;
74044;SDS011;62389;51.412;5.436;2023-03-12T16:26:59;15.40;;;3.28;;
74044;SDS011;62389;51.412;5.436;2023-03-12T16:29:33;14.60;;;2.80;;
74044;SDS011;62389;51.412;5.436;2023-03-12T16:32:00;18.17;;;3.08;;
74044;SDS011;62389;51.412;5.436;2023-03-12T16:34:26;23.20;;;3.13;;
74044;SDS011;62389;51.412;5.436;2023-03-12T16:36:52;10.88;;;2.70;;
74044;SDS011;62389;51.412;5.436;2023-03-12T16:39:17;16.55;;;3.15;;
74044;SDS011;62389;51.412;5.436;2023-03-12T16:41:43;17.88;;;2.95;;
74044;SDS011;62389;51.412;5.436;2023-03-12T16:44:11;14.30;;;3.05;;
74044;SDS011;62389;51.412;5.436;2023-03-12T16:46:39;18.33;;;3.83;;
74044;SDS011;62389;51.412;5.436;2023-03-12T16:49:05;17.70;;;3.65;;
74044;SDS011;62389;51.412;5.436;2023-03-12T16:51:30;18.35;;;3.17;;